createdAt,value
2023-05-24T00:02:51.936Z,38
2023-05-24T00:08:00.829Z,39
2023-05-24T00:13:09.936Z,39
2023-05-24T00:18:19.681Z,39
2023-05-24T00:23:28.816Z,39
2023-05-24T00:28:38.592Z,39
2023-05-24T00:33:48.325Z,39
2023-05-24T00:38:57.472Z,39
2023-05-24T00:44:05.944Z,39
2023-05-24T00:49:15.046Z,40
2023-05-24T00:54:23.513Z,40
2023-05-24T00:59:33.295Z,40
2023-05-24T01:04:41.763Z,40
2023-05-24T01:09:50.900Z,40
2023-05-24T01:15:00.644Z,40
2023-05-24T01:20:11.174Z,40
2023-05-24T01:25:20.846Z,40
2023-05-24T01:30:30.612Z,40
2023-05-24T01:35:40.336Z,40
2023-05-24T01:40:50.742Z,40
2023-05-24T01:45:59.205Z,41
2023-05-24T01:51:08.992Z,41
2023-05-24T01:56:18.079Z,41
2023-05-24T02:01:27.909Z,41
2023-05-24T02:06:36.957Z,41
2023-05-24T02:11:45.458Z,41
2023-05-24T02:16:54.034Z,41
2023-05-24T02:22:02.445Z,41
2023-05-24T02:27:11.533Z,42
2023-05-24T02:32:21.289Z,42
2023-05-24T05:30:38.264Z,44
2023-05-24T05:35:55.240Z,44
2023-05-24T05:41:01.307Z,44
2023-05-24T07:05:07.684Z,42
2023-05-24T07:10:23.964Z,42
2023-05-24T07:15:39.833Z,42
2023-05-24T07:20:54.700Z,42
2023-05-24T07:26:11.589Z,42
2023-05-24T07:31:26.569Z,42
2023-05-24T07:36:41.833Z,42
2023-05-24T07:41:58.734Z,41
2023-05-24T07:47:13.877Z,41
2023-05-24T07:52:29.942Z,41
2023-05-24T07:57:45.477Z,41
2023-05-24T08:03:01.230Z,41
2023-05-24T08:08:15.600Z,41
2023-05-24T08:13:31.393Z,41
2023-05-24T08:18:46.314Z,41
2023-05-24T08:24:01.775Z,41
2023-05-24T08:29:17.701Z,40
2023-05-24T08:34:38.696Z,40
2023-05-24T08:39:53.115Z,40
2023-05-24T08:45:09.036Z,40
2023-05-24T08:50:25.126Z,39
2023-05-24T08:55:42.078Z,38
2023-05-24T09:37:45.716Z,38
2023-05-24T09:43:09.370Z,37
2023-05-24T09:48:23.203Z,37
2023-05-24T09:53:32.120Z,37
2023-05-24T09:58:48.006Z,37
2023-05-24T10:04:10.373Z,37
2023-05-24T10:09:19.621Z,37
2023-05-24T10:14:35.037Z,37
2023-05-24T10:19:49.788Z,37
2023-05-24T10:25:04.680Z,36
2023-05-24T10:30:19.137Z,36
2023-05-24T10:35:34.101Z,36
2023-05-24T10:40:51.114Z,36
2023-05-24T10:46:04.559Z,36
2023-05-24T10:51:39.206Z,36
2023-05-24T10:56:56.162Z,36
2023-05-24T11:02:12.302Z,36
2023-05-24T11:07:27.959Z,36
2023-05-24T11:12:42.719Z,36
2023-05-24T11:17:59.091Z,36
2023-05-24T11:23:14.269Z,35
2023-05-24T11:28:29.493Z,34
2023-05-24T11:33:43.918Z,34
2023-05-24T11:38:59.504Z,34
2023-05-24T11:44:14.985Z,34
2023-05-24T11:49:31.211Z,34
2023-05-24T11:54:45.617Z,34
2023-05-24T12:00:00.506Z,34
2023-05-24T12:05:15.757Z,34
2023-05-24T12:10:30.569Z,35
2023-05-24T12:15:45.237Z,35
2023-05-24T12:21:00.959Z,35
2023-05-24T12:26:15.514Z,35
2023-05-24T12:31:30.565Z,35
2023-05-24T12:36:46.000Z,35
2023-05-24T12:42:02.288Z,35
2023-05-24T12:47:18.903Z,35
2023-05-24T12:52:34.797Z,35
2023-05-24T12:57:51.272Z,34
2023-05-24T13:03:05.510Z,34
2023-05-24T13:08:20.622Z,34
2023-05-24T13:13:35.534Z,34
2023-05-24T13:18:50.796Z,34
2023-05-24T13:24:05.678Z,34
2023-05-24T13:29:49.098Z,35
2023-05-24T13:34:36.724Z,35
2023-05-24T13:39:51.610Z,36
2023-05-24T13:45:07.449Z,37
2023-05-24T13:50:23.540Z,37
2023-05-24T13:55:39.123Z,37
2023-05-24T14:00:55.017Z,36
2023-05-24T14:32:57.841Z,33
2023-05-24T14:38:05.933Z,32
2023-05-24T14:43:22.140Z,32
2023-05-24T14:48:37.383Z,32
2023-05-24T14:53:53.131Z,32
2023-05-24T14:59:08.586Z,33
2023-05-24T15:04:24.574Z,34
2023-05-24T15:09:41.049Z,34
2023-05-24T15:14:56.882Z,34
2023-05-24T15:20:11.873Z,33
2023-05-24T15:25:28.176Z,32
2023-05-24T15:30:45.044Z,31
2023-05-24T15:35:59.920Z,30
2023-05-24T15:41:16.971Z,30
2023-05-24T15:46:32.364Z,29
2023-05-24T15:52:05.500Z,29
2023-05-24T15:57:43.336Z,29
2023-05-24T16:03:11.836Z,29
2023-05-24T16:08:26.080Z,29
2023-05-24T16:13:42.241Z,29
2023-05-24T16:18:58.417Z,30
2023-05-24T16:24:13.936Z,30
2023-05-24T16:29:30.096Z,30
2023-05-24T16:34:57.532Z,30
2023-05-24T16:39:59.850Z,31
2023-05-24T16:45:16.092Z,31
2023-05-24T16:50:31.632Z,31
2023-05-24T16:55:47.093Z,31
2023-05-24T17:01:02.596Z,31
2023-05-24T17:06:18.334Z,32
2023-05-24T17:11:33.674Z,32
2023-05-24T17:16:48.687Z,32
2023-05-24T18:04:18.750Z,29
2023-05-24T18:09:27.359Z,29
2023-05-24T18:14:43.181Z,30
2023-05-24T18:19:58.224Z,30
2023-05-24T18:25:13.213Z,30
2023-05-24T18:30:28.316Z,31
2023-05-24T18:35:44.832Z,31
2023-05-24T18:40:59.388Z,32
2023-05-24T18:46:15.998Z,32
2023-05-24T18:51:31.682Z,32
2023-05-24T18:56:47.247Z,33
2023-05-24T19:02:03.057Z,33
2023-05-24T19:07:18.823Z,33
2023-05-24T19:12:34.411Z,33
2023-05-24T19:17:50.634Z,34
2023-05-24T19:23:05.156Z,34
2023-05-24T19:28:21.536Z,34
2023-05-24T19:34:01.243Z,34
2023-05-24T19:38:52.788Z,35
2023-05-24T19:44:07.512Z,35
2023-05-24T19:49:22.412Z,36
2023-05-24T19:54:38.264Z,36
2023-05-24T19:59:52.931Z,36
2023-05-24T20:05:08.778Z,36
2023-05-24T20:10:24.521Z,37
2023-05-24T20:15:39.891Z,37
2023-05-24T20:20:55.258Z,37
2023-05-24T20:26:09.630Z,37
2023-05-24T20:31:30.467Z,38
2023-05-24T20:36:45.283Z,38
2023-05-24T20:42:00.907Z,38
2023-05-24T20:47:16.060Z,38
2023-05-24T20:52:32.241Z,39
2023-05-24T20:57:48.007Z,39
2023-05-24T21:03:04.556Z,39
2023-05-24T21:08:19.051Z,39
2023-05-24T21:13:36.094Z,40
2023-05-24T21:18:50.704Z,40
2023-05-24T21:24:07.234Z,40
2023-05-24T21:29:21.487Z,41
2023-05-24T22:11:34.562Z,42
2023-05-24T22:16:43.317Z,42
2023-05-24T22:16:50.923Z,42
2023-05-24T22:21:58.633Z,42
2023-05-24T22:27:12.889Z,42
2023-05-24T22:32:28.276Z,42
2023-05-24T22:37:44.170Z,42
2023-05-24T22:43:00.196Z,43
2023-05-24T22:48:15.774Z,43
2023-05-24T22:53:29.933Z,43
2023-05-24T22:58:44.331Z,43
2023-05-24T23:04:21.742Z,44
2023-05-24T23:09:16.218Z,44
2023-05-24T23:14:30.644Z,44
2023-05-24T23:19:46.851Z,44
2023-05-24T23:25:01.625Z,44
2023-05-24T23:30:17.214Z,44
2023-05-24T23:35:32.312Z,44
2023-05-24T23:40:48.246Z,44
2023-05-24T23:46:04.653Z,44
2023-05-24T23:51:20.154Z,44
2023-05-24T23:56:35.515Z,44
